createdAt,value
2022-08-14T00:00:00.173Z,19.04
2022-08-14T00:01:00.325Z,18.99
2022-08-14T00:02:02.182Z,19.07
2022-08-14T00:03:00.100Z,18.96
2022-08-14T00:04:00.101Z,18.92
2022-08-14T00:05:00.084Z,18.86
2022-08-14T00:06:00.422Z,18.99
2022-08-14T00:07:00.066Z,18.93
2022-08-14T00:08:00.082Z,18.88
2022-08-14T00:09:00.274Z,18.88
2022-08-14T00:10:49.659Z,18.90
2022-08-14T00:11:00.094Z,18.88
2022-08-14T00:12:00.060Z,18.86
2022-08-14T00:13:00.306Z,18.75
2022-08-14T00:14:01.513Z,18.83
2022-08-14T00:15:00.047Z,18.81
2022-08-14T00:16:00.004Z,18.77
2022-08-14T00:17:01.336Z,18.78
2022-08-14T00:18:00.061Z,18.83
2022-08-14T00:19:05.974Z,18.84
2022-08-14T00:19:59.992Z,18.81
2022-08-14T00:21:00.239Z,18.83
2022-08-14T00:22:00.082Z,18.74
2022-08-14T00:23:08.316Z,18.75
2022-08-14T00:24:01.776Z,18.83
2022-08-14T00:24:59.961Z,18.78
2022-08-14T00:26:06.817Z,18.74
2022-08-14T00:27:02.133Z,18.75
2022-08-14T00:27:59.992Z,18.83
2022-08-14T00:28:59.949Z,18.77
2022-08-14T00:29:59.933Z,18.74
2022-08-14T00:30:59.932Z,18.70
2022-08-14T00:31:59.950Z,18.71
2022-08-14T00:32:59.956Z,18.75
2022-08-14T00:34:35.283Z,18.70
2022-08-14T00:34:59.941Z,18.75
2022-08-14T00:36:37.139Z,18.71
2022-08-14T00:36:59.923Z,18.80
2022-08-14T00:37:59.926Z,18.78
2022-08-14T00:38:59.906Z,18.74
2022-08-14T00:40:00.094Z,18.78
2022-08-14T00:40:59.925Z,18.81
2022-08-14T00:41:59.918Z,18.77
2022-08-14T00:42:59.905Z,18.78
2022-08-14T00:43:59.880Z,18.81
2022-08-14T00:44:59.924Z,18.73
2022-08-14T00:45:59.908Z,18.68
2022-08-14T00:46:59.879Z,18.68
2022-08-14T00:48:00.267Z,18.65
2022-08-14T00:48:59.846Z,18.63
2022-08-14T00:49:59.844Z,18.60
2022-08-14T00:50:59.872Z,18.55
2022-08-14T00:51:59.854Z,18.55
2022-08-14T00:52:59.842Z,18.59
2022-08-14T00:53:59.836Z,18.55
2022-08-14T00:54:59.858Z,18.59
2022-08-14T00:55:59.816Z,18.58
2022-08-14T00:56:59.813Z,18.56
2022-08-14T00:57:59.845Z,18.60
2022-08-14T00:58:59.858Z,18.47
2022-08-14T00:59:59.831Z,18.62
2022-08-14T01:00:59.816Z,18.52
2022-08-14T01:01:59.897Z,18.58
2022-08-14T01:02:59.801Z,18.59
2022-08-14T01:03:59.780Z,18.59
2022-08-14T01:04:59.781Z,18.55
2022-08-14T01:06:00.469Z,18.58
2022-08-14T01:06:59.751Z,18.49
2022-08-14T01:07:59.778Z,18.40
2022-08-14T01:08:59.904Z,18.40
2022-08-14T01:09:59.756Z,18.40
2022-08-14T01:10:59.743Z,18.38
2022-08-14T01:12:02.649Z,18.41
2022-08-14T01:12:59.755Z,18.35
2022-08-14T01:14:00.818Z,18.31
2022-08-14T01:14:59.788Z,18.38
2022-08-14T01:16:02.692Z,18.33
2022-08-14T01:16:59.976Z,18.38
2022-08-14T01:17:59.719Z,18.38
2022-08-14T01:19:02.188Z,18.41
2022-08-14T01:19:59.708Z,18.34
2022-08-14T01:20:59.695Z,18.26
2022-08-14T01:21:59.721Z,18.23
2022-08-14T01:22:59.712Z,18.23
2022-08-14T01:23:59.693Z,18.18
2022-08-14T01:24:59.672Z,18.26
2022-08-14T01:25:59.697Z,18.20
2022-08-14T01:27:00.376Z,18.18
2022-08-14T01:27:59.677Z,18.18
2022-08-14T01:28:59.669Z,18.20
2022-08-14T01:30:04.159Z,18.20
2022-08-14T01:30:59.645Z,18.19
2022-08-14T01:31:59.654Z,18.20
2022-08-14T01:32:59.673Z,18.20
2022-08-14T01:35:18.504Z,18.18
2022-08-14T01:35:20.261Z,18.19
2022-08-14T01:36:03.241Z,18.19
2022-08-14T01:36:59.624Z,18.19
2022-08-14T01:37:59.739Z,18.11
2022-08-14T01:38:59.611Z,18.10
2022-08-14T01:39:59.611Z,18.10
2022-08-14T01:40:59.645Z,18.08
2022-08-14T01:41:59.583Z,18.01
2022-08-14T01:42:59.576Z,18.07
2022-08-14T01:43:59.570Z,17.98
2022-08-14T01:44:59.554Z,18.04
2022-08-14T01:46:06.228Z,17.98
2022-08-14T01:47:01.279Z,17.97
2022-08-14T01:48:03.628Z,18.04
2022-08-14T01:48:59.588Z,18.00
2022-08-14T01:50:01.765Z,18.00
2022-08-14T01:50:59.681Z,18.04
2022-08-14T01:51:59.582Z,18.03
2022-08-14T01:53:01.267Z,17.97
2022-08-14T01:53:59.530Z,17.92
2022-08-14T01:54:59.699Z,17.90
2022-08-14T01:55:59.781Z,17.98
2022-08-14T01:56:59.498Z,18.00
2022-08-14T01:58:01.293Z,18.01
2022-08-14T01:58:59.770Z,18.01
2022-08-14T01:59:59.848Z,17.98
2022-08-14T02:00:59.501Z,18.01
2022-08-14T02:01:59.779Z,17.98
2022-08-14T02:02:59.688Z,17.97
2022-08-14T02:03:59.859Z,17.97
2022-08-14T02:04:59.660Z,17.95
2022-08-14T02:06:00.017Z,17.89
2022-08-14T02:06:59.642Z,17.87
2022-08-14T02:08:08.985Z,17.87
2022-08-14T02:08:59.756Z,18.03
2022-08-14T02:09:59.555Z,17.90
2022-08-14T02:10:59.602Z,17.83
2022-08-14T02:11:59.664Z,17.98
2022-08-14T02:12:59.699Z,17.83
2022-08-14T02:13:59.665Z,17.87
2022-08-14T02:15:01.264Z,17.87
2022-08-14T02:15:59.689Z,17.87
2022-08-14T02:16:59.814Z,17.82
2022-08-14T02:17:59.667Z,17.82
2022-08-14T02:18:59.877Z,17.79
2022-08-14T02:19:59.376Z,17.76
2022-08-14T02:20:59.405Z,17.79
2022-08-14T02:22:02.591Z,17.76
2022-08-14T02:22:59.666Z,17.70
2022-08-14T02:23:59.854Z,17.72
2022-08-14T02:24:59.619Z,17.68
2022-08-14T02:25:59.787Z,17.72
2022-08-14T02:28:24.231Z,17.63
2022-08-14T02:28:24.820Z,17.63
2022-08-14T02:28:59.886Z,17.68
2022-08-14T02:30:02.103Z,17.65
2022-08-14T02:30:59.524Z,17.68
2022-08-14T02:31:59.834Z,17.65
2022-08-14T02:32:59.530Z,17.63
2022-08-14T02:33:59.477Z,17.65
2022-08-14T02:34:59.329Z,17.57
2022-08-14T02:36:05.010Z,17.57
2022-08-14T02:37:06.181Z,17.52
2022-08-14T02:37:59.818Z,17.56
2022-08-14T02:38:59.691Z,17.49
2022-08-14T02:39:59.541Z,17.57
2022-08-14T02:40:59.554Z,17.57
2022-08-14T02:41:59.499Z,17.51
2022-08-14T02:42:59.904Z,17.57
2022-08-14T02:44:00.898Z,17.48
2022-08-14T02:44:59.470Z,17.57
2022-08-14T02:45:59.359Z,17.52
2022-08-14T02:47:01.569Z,17.60
2022-08-14T02:47:59.496Z,17.63
2022-08-14T02:49:03.483Z,17.60
2022-08-14T02:49:59.425Z,17.57
2022-08-14T02:51:00.563Z,17.52
2022-08-14T02:51:59.450Z,17.52
2022-08-14T02:53:03.256Z,17.48
2022-08-14T02:53:59.399Z,17.46
2022-08-14T02:54:59.540Z,17.42
2022-08-14T02:56:02.604Z,17.48
2022-08-14T02:57:15.982Z,17.42
2022-08-14T02:58:03.559Z,17.39
2022-08-14T02:59:00.365Z,17.44
2022-08-14T02:59:59.383Z,17.46
2022-08-14T03:00:59.384Z,17.42
2022-08-14T03:01:59.442Z,17.45
2022-08-14T03:02:59.810Z,17.46
2022-08-14T03:03:59.335Z,17.41
2022-08-14T03:04:59.393Z,17.38
2022-08-14T03:05:59.276Z,17.38
2022-08-14T03:07:07.266Z,17.42
2022-08-14T03:07:59.291Z,17.45
2022-08-14T03:08:59.377Z,17.39
2022-08-14T03:10:28.088Z,17.42
2022-08-14T03:10:59.138Z,17.41
2022-08-14T03:11:59.347Z,17.44
2022-08-14T03:12:59.403Z,17.38
2022-08-14T03:13:59.555Z,17.44
2022-08-14T03:14:59.334Z,17.41
2022-08-14T03:15:59.078Z,17.48
2022-08-14T03:16:59.386Z,17.45
2022-08-14T03:17:59.448Z,17.45
2022-08-14T03:18:59.911Z,17.46
2022-08-14T03:19:59.320Z,17.42
2022-08-14T03:20:59.293Z,17.39
2022-08-14T03:21:59.266Z,17.44
2022-08-14T03:22:59.053Z,17.44
2022-08-14T03:23:59.543Z,17.39
2022-08-14T03:24:59.299Z,17.42
2022-08-14T03:25:59.025Z,17.36
2022-08-14T03:26:59.216Z,17.36
2022-08-14T03:27:59.308Z,17.31
2022-08-14T03:29:01.021Z,17.29
2022-08-14T03:29:59.374Z,17.24
2022-08-14T03:30:59.951Z,17.22
2022-08-14T03:31:59.225Z,17.19
2022-08-14T03:32:59.157Z,17.23
2022-08-14T03:34:00.017Z,17.16
2022-08-14T03:34:59.382Z,17.23
2022-08-14T03:36:05.190Z,17.24
2022-08-14T03:37:38.259Z,17.20
2022-08-14T03:39:12.797Z,17.19
2022-08-14T03:39:13.318Z,17.16
2022-08-14T03:39:59.464Z,17.14
2022-08-14T03:40:59.219Z,17.16
2022-08-14T03:41:59.986Z,17.24
2022-08-14T03:42:59.161Z,17.12
2022-08-14T03:45:15.666Z,17.15
2022-08-14T03:45:26.540Z,17.14
2022-08-14T03:45:59.202Z,17.14
2022-08-14T03:46:59.114Z,17.09
2022-08-14T03:48:02.015Z,17.06
2022-08-14T03:48:59.215Z,17.11
2022-08-14T03:49:59.090Z,17.16
2022-08-14T03:50:59.361Z,17.09
2022-08-14T03:52:00.737Z,17.06
2022-08-14T03:53:00.446Z,17.05
2022-08-14T03:53:58.871Z,17.09
2022-08-14T03:54:59.110Z,17.08
2022-08-14T03:55:59.177Z,17.05
2022-08-14T03:56:59.071Z,17.01
2022-08-14T03:58:00.635Z,17.08
2022-08-14T03:58:58.846Z,16.97
2022-08-14T03:59:58.846Z,17.01
2022-08-14T04:00:58.877Z,17.05
2022-08-14T04:02:02.133Z,17.06
2022-08-14T04:02:58.815Z,17.06
2022-08-14T04:03:58.841Z,17.06
2022-08-14T04:05:12.190Z,17.09
2022-08-14T04:05:58.803Z,17.02
2022-08-14T04:06:59.172Z,17.01
2022-08-14T04:08:08.452Z,17.01
2022-08-14T04:08:58.790Z,17.02
2022-08-14T04:09:58.786Z,16.99
2022-08-14T04:10:58.776Z,16.97
2022-08-14T04:11:59.541Z,17.06
2022-08-14T04:12:58.760Z,17.01
2022-08-14T04:13:58.760Z,16.97
2022-08-14T04:14:58.760Z,17.01
2022-08-14T04:16:01.597Z,16.94
2022-08-14T04:16:58.756Z,16.91
2022-08-14T04:17:58.752Z,16.90
2022-08-14T04:18:58.741Z,16.97
2022-08-14T04:19:58.735Z,17.04
2022-08-14T04:20:58.762Z,17.02
2022-08-14T04:22:02.315Z,16.94
2022-08-14T04:22:58.717Z,17.01
2022-08-14T04:23:58.725Z,16.94
2022-08-14T04:25:02.145Z,16.96
2022-08-14T04:25:58.707Z,16.94
2022-08-14T04:26:58.682Z,16.97
2022-08-14T04:28:03.221Z,16.97
2022-08-14T04:29:08.686Z,17.11
2022-08-14T04:29:58.675Z,17.16
2022-08-14T04:30:59.468Z,17.27
2022-08-14T04:32:58.073Z,17.44
2022-08-14T04:33:05.376Z,17.44
2022-08-14T04:33:58.649Z,17.44
2022-08-14T04:34:58.645Z,17.51
2022-08-14T04:35:58.660Z,17.54
2022-08-14T04:36:58.647Z,17.57
2022-08-14T04:37:58.628Z,17.56
2022-08-14T04:38:58.611Z,17.63
2022-08-14T04:39:58.880Z,17.74
2022-08-14T04:40:58.628Z,17.78
2022-08-14T04:41:58.606Z,17.90
2022-08-14T04:42:58.595Z,17.98
2022-08-14T04:43:58.600Z,18.00
2022-08-14T04:45:00.643Z,18.10
2022-08-14T04:45:58.585Z,17.97
2022-08-14T04:46:58.578Z,17.95
2022-08-14T04:47:58.577Z,17.92
2022-08-14T04:49:00.088Z,17.97
2022-08-14T04:49:58.779Z,18.05
2022-08-14T04:50:58.557Z,17.87
2022-08-14T04:51:58.564Z,17.83
2022-08-14T04:52:58.546Z,17.86
2022-08-14T04:53:58.543Z,17.87
2022-08-14T04:54:58.549Z,17.89
2022-08-14T04:55:58.531Z,17.94
2022-08-14T04:56:58.536Z,17.98
2022-08-14T04:57:58.531Z,18.08
2022-08-14T04:58:58.519Z,18.15
2022-08-14T04:59:58.510Z,18.31
2022-08-14T05:00:58.502Z,18.31
2022-08-14T05:01:58.585Z,18.29
2022-08-14T05:02:58.495Z,18.41
2022-08-14T05:03:58.481Z,18.56
2022-08-14T05:04:58.931Z,18.55
2022-08-14T05:05:58.489Z,18.62
2022-08-14T05:06:58.479Z,18.59
2022-08-14T05:08:01.833Z,18.63
2022-08-14T05:09:00.074Z,18.62
2022-08-14T05:09:58.465Z,18.70
2022-08-14T05:10:58.458Z,18.59
2022-08-14T05:12:00.611Z,18.58
2022-08-14T05:13:13.340Z,18.38
2022-08-14T05:14:16.907Z,18.37
2022-08-14T05:14:58.433Z,18.33
2022-08-14T05:15:58.438Z,18.29
2022-08-14T05:17:01.528Z,18.33
2022-08-14T05:18:03.658Z,18.29
2022-08-14T05:19:19.124Z,18.20
2022-08-14T05:21:04.214Z,18.25
2022-08-14T05:21:54.630Z,18.29
2022-08-14T05:22:01.306Z,18.26
2022-08-14T05:22:58.393Z,18.38
2022-08-14T05:23:58.387Z,18.47
2022-08-14T05:24:58.381Z,18.55
2022-08-14T05:25:58.369Z,18.63
2022-08-14T05:26:58.371Z,18.66
2022-08-14T05:27:58.383Z,18.75
2022-08-14T05:28:58.361Z,18.73
2022-08-14T05:29:58.353Z,18.74
2022-08-14T05:30:58.357Z,18.86
2022-08-14T05:31:58.457Z,18.86
2022-08-14T05:32:58.345Z,19.15
2022-08-14T05:33:58.343Z,19.16
2022-08-14T05:34:58.849Z,19.21
2022-08-14T05:35:58.327Z,19.24
2022-08-14T05:36:58.910Z,19.21
2022-08-14T05:37:58.316Z,19.22
2022-08-14T05:38:58.312Z,19.16
2022-08-14T05:39:58.493Z,19.34
2022-08-14T05:40:58.297Z,19.41
2022-08-14T05:41:58.326Z,19.48
2022-08-14T05:42:58.294Z,19.34
2022-08-14T05:43:58.289Z,19.47
2022-08-14T05:44:58.279Z,19.54
2022-08-14T05:45:58.284Z,19.59
2022-08-14T05:46:58.281Z,19.51
2022-08-14T05:47:58.277Z,19.56
2022-08-14T05:48:58.266Z,19.48
2022-08-14T05:49:58.258Z,19.58
2022-08-14T05:50:58.269Z,19.74
2022-08-14T05:51:58.450Z,19.89
2022-08-14T05:52:58.241Z,19.95
2022-08-14T05:54:01.460Z,19.99
2022-08-14T05:54:58.236Z,20.02
2022-08-14T05:55:58.241Z,20.04
2022-08-14T05:56:58.247Z,20.06
2022-08-14T05:57:59.378Z,20.16
2022-08-14T05:59:00.511Z,20.29
2022-08-14T05:59:58.229Z,20.36
2022-08-14T06:00:58.211Z,20.39
2022-08-14T06:01:58.258Z,20.37
2022-08-14T06:02:58.209Z,20.51
2022-08-14T06:03:58.206Z,20.47
2022-08-14T06:04:58.766Z,20.47
2022-08-14T06:05:58.203Z,20.59
2022-08-14T06:06:58.182Z,20.70
2022-08-14T06:07:58.185Z,20.66
2022-08-14T06:08:58.172Z,20.85
2022-08-14T06:10:01.598Z,20.92
2022-08-14T06:10:58.203Z,20.80
2022-08-14T06:11:58.169Z,20.95
2022-08-14T06:12:58.399Z,20.93
2022-08-14T06:13:58.169Z,21.07
2022-08-14T06:14:58.166Z,21.06
2022-08-14T06:15:58.159Z,21.14
2022-08-14T06:16:58.154Z,21.18
2022-08-14T06:17:59.207Z,21.17
2022-08-14T06:18:59.515Z,21.18
2022-08-14T06:19:58.136Z,21.06
2022-08-14T06:20:58.153Z,21.06
2022-08-14T06:21:59.502Z,21.03
2022-08-14T06:22:58.144Z,21.17
2022-08-14T06:23:59.507Z,21.27
2022-08-14T06:24:58.131Z,21.27
2022-08-14T06:25:58.140Z,21.20
2022-08-14T06:27:04.291Z,21.25
2022-08-14T06:28:00.929Z,21.30
2022-08-14T06:28:58.123Z,21.27
2022-08-14T06:29:58.113Z,21.45
2022-08-14T06:30:58.094Z,21.50
2022-08-14T06:32:00.668Z,21.32
2022-08-14T06:32:58.099Z,21.30
2022-08-14T06:35:02.140Z,21.55
2022-08-14T06:35:09.702Z,21.48
2022-08-14T06:35:58.099Z,21.60
2022-08-14T06:36:58.125Z,21.62
2022-08-14T06:37:58.093Z,21.64
2022-08-14T06:38:58.087Z,21.89
2022-08-14T06:39:58.124Z,21.91
2022-08-14T06:40:58.165Z,22.10
2022-08-14T06:41:59.687Z,22.14
2022-08-14T06:43:00.038Z,22.22
2022-08-14T06:43:58.091Z,22.17
2022-08-14T06:44:58.457Z,22.18
2022-08-14T06:45:58.057Z,22.25
2022-08-14T06:46:58.118Z,22.44
2022-08-14T06:47:58.640Z,22.53
2022-08-14T06:48:58.072Z,22.59
2022-08-14T06:49:58.468Z,22.65
2022-08-14T06:50:58.197Z,22.60
2022-08-14T06:51:58.065Z,22.20
2022-08-14T06:52:58.020Z,22.25
2022-08-14T06:53:58.015Z,22.20
2022-08-14T06:54:58.063Z,22.44
2022-08-14T06:56:01.952Z,22.57
2022-08-14T06:56:58.038Z,22.85
2022-08-14T06:57:58.241Z,22.87
2022-08-14T06:58:58.044Z,22.90
2022-08-14T06:59:58.035Z,23.06
2022-08-14T07:00:58.080Z,23.02
2022-08-14T07:01:58.001Z,23.17
2022-08-14T07:02:57.986Z,23.20
2022-08-14T07:03:58.015Z,23.50
2022-08-14T07:04:58.176Z,23.50
2022-08-14T07:05:58.737Z,23.58
2022-08-14T07:06:59.538Z,23.62
2022-08-14T07:07:58.042Z,23.66
2022-08-14T07:08:57.987Z,23.61
2022-08-14T07:09:57.987Z,23.54
2022-08-14T07:10:57.974Z,23.51
2022-08-14T07:11:57.961Z,23.61
2022-08-14T07:13:03.774Z,23.76
2022-08-14T07:13:58.004Z,23.73
2022-08-14T07:15:01.440Z,23.74
2022-08-14T07:15:58.380Z,23.69
2022-08-14T07:16:57.993Z,23.71
2022-08-14T07:17:57.964Z,23.71
2022-08-14T07:18:57.950Z,23.83
2022-08-14T07:19:57.964Z,23.84
2022-08-14T07:20:57.944Z,23.95
2022-08-14T07:21:57.950Z,24.05
2022-08-14T07:22:58.317Z,24.23
2022-08-14T07:23:57.951Z,24.32
2022-08-14T07:24:57.927Z,24.39
2022-08-14T07:25:58.319Z,24.47
2022-08-14T07:26:57.954Z,24.43
2022-08-14T07:27:57.929Z,24.35
2022-08-14T07:28:57.916Z,24.39
2022-08-14T07:29:57.955Z,24.55
2022-08-14T07:31:04.729Z,24.53
2022-08-14T07:31:57.962Z,24.61
2022-08-14T07:32:57.928Z,24.69
2022-08-14T07:33:57.913Z,24.78
2022-08-14T07:34:57.934Z,24.91
2022-08-14T07:35:59.270Z,25.18
2022-08-14T07:37:01.093Z,25.25
2022-08-14T07:37:57.893Z,25.32
2022-08-14T07:38:57.919Z,25.35
2022-08-14T07:39:57.908Z,25.51
2022-08-14T07:40:57.885Z,25.53
2022-08-14T07:41:57.905Z,25.65
2022-08-14T07:42:57.933Z,25.65
2022-08-14T07:43:57.919Z,25.72
2022-08-14T07:44:57.905Z,25.80
2022-08-14T07:45:57.916Z,25.95
2022-08-14T07:46:57.885Z,26.26
2022-08-14T07:47:57.913Z,26.55
2022-08-14T07:48:57.984Z,26.68
2022-08-14T07:49:57.891Z,26.88
2022-08-14T07:51:03.077Z,27.07
2022-08-14T07:51:57.922Z,27.37
2022-08-14T07:52:57.897Z,27.58
2022-08-14T07:53:57.905Z,27.85
2022-08-14T07:54:57.898Z,27.93
2022-08-14T07:56:00.463Z,27.15
2022-08-14T07:56:57.904Z,26.90
2022-08-14T07:57:57.879Z,26.62
2022-08-14T07:58:58.208Z,26.40
2022-08-14T07:59:57.875Z,26.09
2022-08-14T08:00:57.884Z,26.00
2022-08-14T08:01:58.639Z,26.05
2022-08-14T08:03:00.302Z,25.96
2022-08-14T08:03:59.949Z,26.15
2022-08-14T08:04:59.425Z,26.09
2022-08-14T08:05:57.860Z,25.90
2022-08-14T08:06:57.866Z,25.91
2022-08-14T08:07:58.177Z,25.80
2022-08-14T08:08:58.802Z,25.73
2022-08-14T08:09:58.073Z,25.91
2022-08-14T08:11:02.897Z,26.10
2022-08-14T08:11:57.883Z,26.31
2022-08-14T08:12:57.861Z,26.52
2022-08-14T08:13:57.845Z,26.63
2022-08-14T08:15:02.863Z,26.92
2022-08-14T08:15:58.243Z,27.05
2022-08-14T08:16:58.040Z,27.40
2022-08-14T08:18:01.496Z,27.63
2022-08-14T08:19:02.917Z,27.95
2022-08-14T08:19:57.873Z,28.05
2022-08-14T08:20:59.290Z,28.29
2022-08-14T08:21:57.856Z,28.32
2022-08-14T08:23:06.183Z,27.98
2022-08-14T08:23:57.846Z,27.77
2022-08-14T08:24:57.923Z,27.85
2022-08-14T08:25:58.028Z,27.83
2022-08-14T08:26:57.874Z,27.82
2022-08-14T08:27:57.867Z,27.73
2022-08-14T08:28:57.850Z,27.64
2022-08-14T08:29:57.871Z,27.36
2022-08-14T08:30:58.087Z,27.33
2022-08-14T08:32:01.702Z,27.35
2022-08-14T08:32:57.867Z,27.47
2022-08-14T08:33:57.844Z,27.58
2022-08-14T08:34:57.844Z,27.71
2022-08-14T08:35:57.827Z,27.90
2022-08-14T08:36:57.845Z,27.54
2022-08-14T08:38:01.496Z,27.44
2022-08-14T08:39:14.831Z,27.48
2022-08-14T08:40:03.488Z,27.52
2022-08-14T08:41:00.075Z,27.68
2022-08-14T08:41:57.835Z,27.82
2022-08-14T08:42:59.210Z,28.20
2022-08-14T08:43:57.832Z,28.33
2022-08-14T08:44:57.833Z,28.47
2022-08-14T08:45:57.838Z,28.51
2022-08-14T08:46:57.828Z,28.85
2022-08-14T08:47:57.876Z,28.97
2022-08-14T08:49:42.168Z,28.97
2022-08-14T08:50:42.323Z,29.08
2022-08-14T08:51:43.180Z,29.51
2022-08-14T08:52:41.285Z,29.63
2022-08-14T08:53:41.195Z,29.72
2022-08-14T08:54:41.205Z,29.51
2022-08-14T08:55:41.208Z,29.56
2022-08-14T08:56:41.197Z,29.76
2022-08-14T08:57:41.241Z,29.94
2022-08-14T08:58:41.190Z,29.87
2022-08-14T08:59:42.110Z,30.02
2022-08-14T09:00:41.234Z,30.08
2022-08-14T09:01:41.198Z,29.94
2022-08-14T09:02:41.233Z,29.98
2022-08-14T09:03:44.219Z,29.51
2022-08-14T09:04:45.201Z,29.23
2022-08-14T09:05:41.202Z,29.08
2022-08-14T09:07:00.661Z,29.20
2022-08-14T09:07:41.189Z,29.19
2022-08-14T09:08:41.358Z,29.01
2022-08-14T09:09:53.969Z,28.78
2022-08-14T09:10:41.241Z,28.86
2022-08-14T09:11:41.206Z,28.81
2022-08-14T09:12:41.190Z,28.85
2022-08-14T09:13:41.181Z,29.02
2022-08-14T09:14:41.193Z,29.13
2022-08-14T09:15:42.674Z,29.32
2022-08-14T09:16:45.107Z,29.73
2022-08-14T09:17:42.129Z,29.78
2022-08-14T09:18:41.207Z,29.98
2022-08-14T09:19:41.219Z,29.95
2022-08-14T09:20:41.208Z,29.94
2022-08-14T09:21:41.208Z,30.09
2022-08-14T09:22:42.426Z,29.97
2022-08-14T09:24:26.730Z,29.68
2022-08-14T09:24:43.998Z,29.38
2022-08-14T09:26:00.361Z,29.17
2022-08-14T09:26:41.208Z,29.32
2022-08-14T09:27:41.199Z,29.41
2022-08-14T09:28:41.280Z,29.60
2022-08-14T09:29:41.193Z,29.65
2022-08-14T09:30:41.229Z,29.65
2022-08-14T09:31:42.555Z,29.71
2022-08-14T09:32:58.841Z,29.75
2022-08-14T09:33:43.057Z,29.86
2022-08-14T09:34:47.469Z,29.56
2022-08-14T09:35:41.188Z,29.57
2022-08-14T09:36:41.232Z,29.61
2022-08-14T09:37:41.209Z,29.87
2022-08-14T09:38:41.199Z,29.93
2022-08-14T09:39:41.287Z,29.90
2022-08-14T09:40:41.207Z,29.59
2022-08-14T09:42:20.313Z,29.63
2022-08-14T09:42:49.940Z,29.69
2022-08-14T09:43:41.211Z,29.69
2022-08-14T09:44:42.910Z,29.59
2022-08-14T09:45:53.526Z,29.75
2022-08-14T09:46:41.200Z,29.82
2022-08-14T09:47:41.212Z,29.78
2022-08-14T09:48:41.194Z,29.59
2022-08-14T09:49:41.193Z,29.38
2022-08-14T09:50:41.195Z,29.22
2022-08-14T09:51:44.686Z,29.07
2022-08-14T09:52:45.321Z,29.12
2022-08-14T09:54:19.662Z,29.31
2022-08-14T09:54:41.209Z,29.44
2022-08-14T09:55:41.439Z,29.50
2022-08-14T09:56:41.196Z,29.57
2022-08-14T09:57:41.266Z,29.56
2022-08-14T09:58:41.188Z,29.63
2022-08-14T09:59:41.298Z,29.49
2022-08-14T10:00:41.274Z,29.45
2022-08-14T10:01:41.448Z,29.38
2022-08-14T10:02:45.658Z,29.42
2022-08-14T10:03:41.213Z,29.76
2022-08-14T10:04:45.988Z,30.02
2022-08-14T10:05:41.223Z,30.09
2022-08-14T10:06:41.221Z,30.09
2022-08-14T10:07:41.391Z,29.91
2022-08-14T10:08:41.254Z,29.69
2022-08-14T10:09:41.218Z,29.79
2022-08-14T10:10:41.789Z,29.95
2022-08-14T10:11:43.602Z,29.91
2022-08-14T10:12:41.204Z,29.90
2022-08-14T10:13:52.815Z,30.06
2022-08-14T10:14:41.191Z,30.00
2022-08-14T10:15:41.197Z,30.18
2022-08-14T10:16:41.177Z,30.24
2022-08-14T10:17:41.240Z,30.19
2022-08-14T10:18:41.201Z,29.94
2022-08-14T10:19:41.224Z,29.93
2022-08-14T10:20:42.544Z,30.09
2022-08-14T10:23:11.123Z,30.19
2022-08-14T10:23:21.726Z,29.94
2022-08-14T10:23:41.192Z,29.95
2022-08-14T10:24:42.023Z,30.02
2022-08-14T10:25:42.508Z,30.23
2022-08-14T10:26:41.211Z,30.40
2022-08-14T10:27:41.198Z,30.37
2022-08-14T10:29:18.785Z,30.46
2022-08-14T10:29:41.231Z,30.48
2022-08-14T10:30:41.229Z,30.44
2022-08-14T10:31:45.353Z,30.34
2022-08-14T10:32:49.602Z,30.40
2022-08-14T10:33:41.203Z,30.47
2022-08-14T10:34:41.220Z,30.51
2022-08-14T10:35:41.219Z,30.40
2022-08-14T10:36:44.918Z,30.63
2022-08-14T10:37:41.214Z,30.84
2022-08-14T10:38:41.233Z,30.91
2022-08-14T10:39:51.366Z,30.96
2022-08-14T10:40:44.290Z,30.85
2022-08-14T10:41:48.746Z,30.94
2022-08-14T10:42:41.306Z,31.17
2022-08-14T10:43:41.197Z,31.12
2022-08-14T10:44:41.209Z,31.34
2022-08-14T10:45:41.987Z,31.55
2022-08-14T10:47:39.329Z,31.62
2022-08-14T10:48:07.205Z,31.74
2022-08-14T10:48:45.626Z,31.71
2022-08-14T10:49:41.232Z,31.59
2022-08-14T10:50:41.209Z,31.33
2022-08-14T10:51:42.075Z,31.12
2022-08-14T10:52:42.291Z,31.20
2022-08-14T10:53:41.232Z,31.12
2022-08-14T10:54:42.063Z,31.07
2022-08-14T10:55:44.938Z,31.15
2022-08-14T10:56:41.215Z,30.83
2022-08-14T10:57:41.253Z,30.80
2022-08-14T10:58:41.242Z,30.69
2022-08-14T10:59:43.177Z,30.48
2022-08-14T11:00:42.812Z,30.62
2022-08-14T11:01:41.914Z,30.90
2022-08-14T11:02:54.679Z,31.27
2022-08-14T11:03:56.780Z,31.31
2022-08-14T11:04:41.288Z,31.37
2022-08-14T11:05:41.330Z,31.54
2022-08-14T11:06:41.231Z,31.46
2022-08-14T11:07:41.229Z,31.51
2022-08-14T11:08:41.236Z,31.49
2022-08-14T11:09:41.948Z,31.28
2022-08-14T11:10:43.064Z,31.18
2022-08-14T11:11:41.256Z,31.09
2022-08-14T11:12:41.249Z,30.96
2022-08-14T11:13:41.264Z,31.31
2022-08-14T11:14:41.248Z,31.44
2022-08-14T11:15:41.285Z,31.55
2022-08-14T11:16:41.259Z,31.44
2022-08-14T11:17:41.255Z,31.46
2022-08-14T11:18:41.284Z,31.52
2022-08-14T11:19:41.280Z,31.43
2022-08-14T11:20:41.276Z,31.36
2022-08-14T11:21:41.273Z,31.22
2022-08-14T11:22:52.674Z,30.90
2022-08-14T11:23:44.212Z,30.77
2022-08-14T11:24:51.037Z,30.65
2022-08-14T11:25:43.839Z,30.81
2022-08-14T11:26:41.228Z,30.88
2022-08-14T11:27:41.254Z,30.75
2022-08-14T11:28:47.129Z,30.47
2022-08-14T11:29:41.233Z,30.51
2022-08-14T11:30:50.674Z,30.55
2022-08-14T11:31:41.643Z,30.75
2022-08-14T11:32:41.286Z,30.99
2022-08-14T11:33:41.285Z,31.28
2022-08-14T11:34:41.292Z,31.29
2022-08-14T11:35:47.463Z,31.27
2022-08-14T11:37:09.368Z,31.20
2022-08-14T11:37:41.269Z,30.99
2022-08-14T11:38:44.910Z,30.88
2022-08-14T11:39:41.291Z,30.90
2022-08-14T11:40:41.272Z,31.09
2022-08-14T11:41:55.835Z,31.24
2022-08-14T11:42:56.485Z,31.40
2022-08-14T11:43:41.672Z,31.28
2022-08-14T11:44:45.076Z,31.28
2022-08-14T11:45:41.246Z,31.14
2022-08-14T11:46:41.302Z,31.22
2022-08-14T11:48:10.683Z,31.44
2022-08-14T11:49:03.083Z,31.39
2022-08-14T11:49:41.234Z,30.85
2022-08-14T11:50:41.285Z,30.65
2022-08-14T11:51:53.424Z,30.39
2022-08-14T11:52:41.445Z,30.08
2022-08-14T11:53:42.012Z,30.13
2022-08-14T11:54:41.239Z,30.21
2022-08-14T11:55:41.363Z,30.48
2022-08-14T11:56:41.286Z,30.40
2022-08-14T11:57:41.266Z,30.50
2022-08-14T11:58:41.258Z,30.54
2022-08-14T11:59:44.215Z,30.78
2022-08-14T12:00:46.230Z,31.06
2022-08-14T12:01:41.529Z,31.22
2022-08-14T12:03:03.331Z,31.02
2022-08-14T12:03:51.707Z,30.69
2022-08-14T12:04:41.322Z,30.46
2022-08-14T12:05:41.267Z,30.39
2022-08-14T12:06:41.245Z,30.39
2022-08-14T12:07:42.925Z,30.66
2022-08-14T12:08:41.285Z,30.80
2022-08-14T12:09:42.807Z,30.78
2022-08-14T12:10:43.058Z,30.81
2022-08-14T12:11:43.935Z,30.84
2022-08-14T12:12:42.220Z,30.77
2022-08-14T12:13:44.325Z,30.66
2022-08-14T12:14:44.315Z,30.87
2022-08-14T12:15:44.705Z,30.77
2022-08-14T12:16:41.260Z,30.92
2022-08-14T12:17:47.598Z,31.05
2022-08-14T12:18:41.274Z,31.27
2022-08-14T12:19:41.271Z,31.10
2022-08-14T12:20:45.662Z,31.00
2022-08-14T12:21:44.250Z,30.99
2022-08-14T12:22:42.320Z,31.14
2022-08-14T12:23:41.255Z,31.14
2022-08-14T12:24:41.266Z,31.06
2022-08-14T12:25:41.276Z,31.07
2022-08-14T12:26:41.364Z,31.05
2022-08-14T12:27:46.782Z,30.99
2022-08-14T12:28:59.472Z,30.97
2022-08-14T12:29:41.306Z,30.88
2022-08-14T12:30:43.434Z,30.81
2022-08-14T12:31:44.734Z,30.70
2022-08-14T12:32:41.259Z,30.39
2022-08-14T12:33:46.926Z,30.30
2022-08-14T12:34:41.269Z,30.39
2022-08-14T12:35:41.291Z,30.39
2022-08-14T12:36:41.302Z,30.53
2022-08-14T12:37:41.261Z,30.84
2022-08-14T12:38:41.261Z,31.06
2022-08-14T12:39:42.005Z,31.17
2022-08-14T12:40:41.310Z,31.22
2022-08-14T12:41:41.330Z,31.39
2022-08-14T12:42:47.480Z,31.43
2022-08-14T12:43:41.285Z,31.54
2022-08-14T12:44:41.272Z,31.54
2022-08-14T12:45:41.302Z,31.76
2022-08-14T12:46:41.270Z,31.64
2022-08-14T12:47:41.392Z,31.69
2022-08-14T12:48:41.300Z,31.54
2022-08-14T12:49:41.272Z,31.43
2022-08-14T12:50:41.285Z,31.36
2022-08-14T12:51:42.706Z,31.21
2022-08-14T12:52:47.432Z,31.20